Startpagina
METAR-TAF:

METAR-TAF

Vliegvelden :

Luchthaven Port Moresby

Port Moresby, Papoea-Nieuw-Guinea

breedte: 09-26S, lengte: 147-13E, hoogte: 38 m

Actueel weer

Dit bericht is 1 uur en het 17 minuten geleden gemaakt, om 14:00 UTC
Wind 3 kt uit het noordnoordwesten
Temperatuur 26°C
Vochtigheid 94%
Druk 1009 hPa
Zicht 10 km of meer
Weinig wolken op 2000 ft

METAR: AYPY 261400Z 33003KT 9999 FEW020 26/25 Q1009/

Tijdstip: 01:17 (15:17 UTC)

Verwachting

Dit bericht is 17 minuten geleden gemaakt, om 15:00 UTC
Verwachting geldig van 25 om 18 UTC tot 26 om 18 UTC
Wind 3 kt uit variabele richting
Zicht: 1009 m
Weinig wolken op 2000 ft
Gebroken wolken op 4000 ft

TAF: AYPY 251500Z 2518/2618 VRB03KT 9999 FEW020 BKN040 T 26 26 32 32 Q 1007 1008 1010 1009 AREA QNH FOR AYPY FIR VALID 2518/2618 1008 HPA

Waarnemingen en weersverwachtingen van meer dan 4000 vliegvelden (METAR en TAF).

De beschikbare stations zijn de gele en rode punten op de kaart.

Ga met uw muis naar het station om de naam te zien.

Klik dan om waarnemingen en weersverwachtingen te zien.

kaart wijzigen: klik op de groene knoppen met een zwart kruis om in te zoomen, op de groene knop met een streepje om uit te zoomen of op de groene pijlen voor aangrenzende kaarten.


METAR-TAF: